Blackbird — WDJ4307 — position and weather

sailwx.info

Track history (hours):
 
Tides and Currents Weather Stations Pressure Air Temp Water Temp Dewpoint Dewpoint Depression Visibility Wind Speed Wind Dir Waves Ship Positions

Blackbird

Owner: PropSF, LLC, Alameda, CA. More information available from US FCC via Universal Licensing System and Coast Guard Vessel Documentation Center.

Last reported at 2018-Jul-16 14:30 UTC. Time now 2018-Jul-16 14:42 UTC.
Position N 37°52' W 122°19'.

Length 17 m; draft 1 m.

Type: Passenger vessel. MMSI: 367776390.

Date/timePositionNaut miles runAvg speedWind from/ knotsBaromVisibWave heightAir tempDewpointWater temp
2018-Jul-16 14:30N 37°52' W 122°19'511.1
2018-Jul-16 14:01N 37°47' W 122°22'510.4
2018-Jul-16 13:31N 37°42' W 122°21'1020.8
2018-Jul-16 13:00N 37°52' W 122°19'3 6.6
2018-Jul-16 12:30N 37°55' W 122°21'3 6.9
2018-Jul-16 12:00N 37°51' W 122°22'3 6.0
2018-Jul-16 11:30N 37°50' W 122°19'  
2018-Jul-14 02:20N 37°50' W 122°19'3 8.3
2018-Jul-14 02:01N 37°51' W 122°22'1121.9
2018-Jul-14 01:31N 38°02' W 122°21'914.3
2018-Jul-14 00:52N 38°03' W 122°09'924.6
2018-Jul-14 00:30N 38°02' W 122°21'917.8
2018-Jul-14 00:00N 37°55' W 122°27'612.2
2018-Jul-13 23:30N 37°51' W 122°21'1222.8
2018-Jul-13 23:00N 37°40' W 122°23'713.6
2018-Jul-13 22:30N 37°46' W 122°22'5 9.2
2018-Jul-13 22:01N 37°51' W 122°21'1122.6
2018-Jul-13 21:30N 37°40' W 122°23'1121.2
2018-Jul-13 21:01N 37°50' W 122°20'1 1.7
2018-Jul-13 20:30N 37°50' W 122°19'0 0.0
2018-Jul-13 16:12N 37°50' W 122°19'1 4.4
2018-Jul-13 16:01N 37°50' W 122°20'1121.5
2018-Jul-13 15:30N 37°40' W 122°23'918.8
2018-Jul-13 15:01N 37°49' W 122°21'7 6.9
2018-Jul-13 14:01N 37°42' W 122°20'1 2.6
2018-Jul-13 13:30N 37°43' W 122°21'918.6
2018-Jul-13 13:00N 37°52' W 122°19'3 6.8
2018-Jul-13 12:30N 37°55' W 122°21'2 4.6
2018-Jul-13 12:01N 37°54' W 122°24'510.6
2018-Jul-13 11:30N 37°50' W 122°19'0 0.0
2018-Jul-13 02:28N 37°50' W 122°19'4 8.4
2018-Jul-13 02:00N 37°52' W 122°23'1019.3
2018-Jul-13 01:31N 38°02' W 122°22'1016.9
2018-Jul-13 00:57N 38°03' W 122°09'1126.0
2018-Jul-13 00:30N 38°00' W 122°24'612.2
2018-Jul-13 00:00N 37°54' W 122°26'510.2
2018-Jul-12 23:30N 37°51' W 122°21'1122.6
2018-Jul-12 23:01N 37°40' W 122°23'713.0
2018-Jul-12 22:31N 37°46' W 122°21'510.3
2018-Jul-12 22:00N 37°51' W 122°21'1223.3
2018-Jul-12 21:30N 37°40' W 122°23'815.1
2018-Jul-12 21:01N 37°47' W 122°21'4 7.1
2018-Jul-12 20:30N 37°50' W 122°19'0 0.0
2018-Jul-12 16:10N 37°50' W 122°19'318.0
2018-Jul-12 16:00N 37°48' W 122°21'917.1
2018-Jul-12 15:30N 37°40' W 122°23'917.8
2018-Jul-12 15:01N 37°49' W 122°21'4 7.7
2018-Jul-12 14:31N 37°52' W 122°19'918.8
2018-Jul-12 14:00N 37°43' W 122°21'1 1.9
2018-Jul-12 13:31N 37°42' W 122°21'1020.5
2018-Jul-12 13:00N 37°52' W 122°19'3 6.7
2018-Jul-12 12:30N 37°55' W 122°21'2 4.8
2018-Jul-12 12:00N 37°53' W 122°24'5 9.0
2018-Jul-12 11:29N 37°50' W 122°19'0 0.0
2018-Jul-12 02:53N 37°50' W 122°19'0 0.0
2018-Jul-12 02:30N 37°50' W 122°19'3 5.1
2018-Jul-12 02:01N 37°51' W 122°22'1020.0
2018-Jul-12 01:30N 38°01' W 122°23'1019.4
2018-Jul-12 01:00N 38°03' W 122°11'713.4
2018-Jul-12 00:30N 38°02' W 122°19'1020.4
2018-Jul-12 00:01N 37°55' W 122°28'713.6
2018-Jul-11 23:30N 37°51' W 122°21'1222.9
2018-Jul-11 23:00N 37°40' W 122°23'5 9.9
2018-Jul-11 22:31N 37°44' W 122°21'714.4
2018-Jul-11 22:01N 37°52' W 122°20'1219.4
2018-Jul-11 21:23N 37°40' W 122°23'616.8
2018-Jul-11 21:01N 37°46' W 122°22'5 9.5
2018-Jul-11 20:31N 37°50' W 122°19'0 0.0
2018-Jul-11 20:00N 37°50' W 122°19'0 0.0
2018-Jul-11 16:22N 37°50' W 122°19'2 5.7
2018-Jul-11 16:00N 37°49' W 122°21'1019.2
2018-Jul-11 15:30N 37°40' W 122°23'918.8
2018-Jul-11 15:00N 37°49' W 122°21'3 6.7
2018-Jul-11 14:30N 37°52' W 122°19'613.0
2018-Jul-11 14:00N 37°46' W 122°22'4 7.9
2018-Jul-11 13:30N 37°42' W 122°21'1020.3
2018-Jul-11 13:00N 37°52' W 122°19'3 6.8
2018-Jul-11 12:30N 37°55' W 122°21'3 5.9
2018-Jul-11 12:01N 37°52' W 122°23'4 7.5
2018-Jul-11 11:30N 37°50' W 122°19'0 0.0
2018-Jul-11 02:36N 37°50' W 122°19'0 0.0
2018-Jul-11 02:31N 37°50' W 122°19'611.8
2018-Jul-11 02:01N 37°54' W 122°25'713.1
2018-Jul-11 01:30N 38°00' W 122°24'1220.1
2018-Jul-11 00:55N 38°02' W 122°10'1226.6
2018-Jul-11 00:29N 37°60' W 122°24'715.2
2018-Jul-11 00:00N 37°53' W 122°23'2 4.3
2018-Jul-10 23:31N 37°51' W 122°22'1120.3
2018-Jul-10 22:58N 37°40' W 122°23'715.3
2018-Jul-10 22:31N 37°47' W 122°22'5 9.3
2018-Jul-10 22:01N 37°51' W 122°21'1222.2
2018-Jul-10 21:29N 37°40' W 122°23'714.1
2018-Jul-10 21:01N 37°47' W 122°22'4 8.9
2018-Jul-10 20:30N 37°50' W 122°19'0 0.0
2018-Jul-10 20:00N 37°50' W 122°19'0 0.0
2018-Jul-10 19:30N 37°50' W 122°19'0 0.0
2018-Jul-10 16:11N 37°50' W 122°19'1 4.6
2018-Jul-10 16:00N 37°51' W 122°20'1121.2
2018-Jul-10 15:30N 37°40' W 122°23'816.3
2018-Jul-10 15:00N 37°48' W 122°21'5 9.2
2018-Jul-10 14:30N 37°52' W 122°19'815.6
2018-Jul-10 14:00N 37°44' W 122°21'3 5.4
2018-Jul-10 13:30N 37°42' W 122°21'1020.8
2018-Jul-10 13:00N 37°52' W 122°19'3 6.4
2018-Jul-10 12:29N 37°55' W 122°21'0 1.0
2018-Jul-10 12:00N 37°54' W 122°22'5 9.1
2018-Jul-10 11:30N 37°51' W 122°19'0 0.0
2018-Jul-10 02:23N 37°50' W 122°19'1 2.4
2018-Jul-10 02:00N 37°51' W 122°20'1019.4
2018-Jul-10 01:30N 37°59' W 122°25'1122.5
2018-Jul-10 01:00N 38°03' W 122°11'713.7
2018-Jul-10 00:30N 38°02' W 122°20'918.9
2018-Jul-10 00:00N 37°55' W 122°27'611.6
2018-Jul-09 23:31N 37°51' W 122°21'1122.3
2018-Jul-09 23:00N 37°40' W 122°23'510.8
2018-Jul-09 22:31N 37°45' W 122°21'713.2
2018-Jul-09 22:00N 37°52' W 122°20'1222.3
2018-Jul-09 21:28N 37°40' W 122°23'510.3
2018-Jul-09 21:01N 37°44' W 122°21'612.3
2018-Jul-09 20:30N 37°50' W 122°19'0 0.0
2018-Jul-09 16:10N 37°50' W 122°19'0 1.0
2018-Jul-09 16:00N 37°50' W 122°19'1121.4
2018-Jul-09 15:29N 37°40' W 122°23'918.5
2018-Jul-09 15:00N 37°49' W 122°21'4 7.5
2018-Jul-09 14:30N 37°52' W 122°19'612.8
2018-Jul-09 14:01N 37°46' W 122°21'4 7.9
2018-Jul-09 13:30N 37°42' W 122°21'1020.5
2018-Jul-09 13:00N 37°52' W 122°19'3 6.6
2018-Jul-09 12:30N 37°55' W 122°21'0 0.5
2018-Jul-09 12:00N 37°55' W 122°22'5 9.5
2018-Jul-09 11:31N 37°50' W 122°19'  
2018-Jul-07 02:14N 37°50' W 122°19'313.2
2018-Jul-07 02:01N 37°52' W 122°22'1122.2
2018-Jul-07 01:30N 38°02' W 122°20'811.9
2018-Jul-07 00:49N 38°03' W 122°09'723.1
2018-Jul-07 00:31N 38°03' W 122°19'1121.4
2018-Jul-07 00:01N 37°55' W 122°28'713.7
2018-Jul-06 23:30N 37°51' W 122°21'1122.8
2018-Jul-06 23:00N 37°40' W 122°23'611.8
2018-Jul-06 22:31N 37°46' W 122°21'611.2
2018-Jul-06 22:00N 37°51' W 122°21'1116.4
2018-Jul-06 21:19N 37°40' W 122°23'414.0
2018-Jul-06 21:00N 37°44' W 122°21'713.5
2018-Jul-06 20:30N 37°50' W 122°19'0 0.0
2018-Jul-06 20:00N 37°50' W 122°19'0 0.1
2018-Jul-06 16:02N 37°51' W 122°19'0 3.2
2018-Jul-06 16:01N 37°51' W 122°19'1121.2
2018-Jul-06 15:29N 37°40' W 122°23'919.1
2018-Jul-06 15:01N 37°49' W 122°21'  
Track history (hours):
 
Tides and Currents Weather Stations Pressure Air Temp Water Temp Dewpoint Dewpoint Depression Visibility Wind Speed Wind Dir Waves Ship Positions

Blackbird

Owner: PropSF, LLC, Alameda, CA. More information available from US FCC via Universal Licensing System and Coast Guard Vessel Documentation Center.

Last reported at 2018-Jul-16 14:30 UTC. Time now 2018-Jul-16 14:42 UTC.
Position N 37°52' W 122°19'.

Length 17 m; draft 1 m.

Type: Passenger vessel. MMSI: 367776390.

Date/timePositionNaut miles runAvg speedWind from/ knotsBaromVisibWave heightAir tempDewpointWater temp
2018-Jul-16 14:30N 37°52' W 122°19'511.1
2018-Jul-16 14:01N 37°47' W 122°22'510.4
2018-Jul-16 13:31N 37°42' W 122°21'1020.8
2018-Jul-16 13:00N 37°52' W 122°19'3 6.6
2018-Jul-16 12:30N 37°55' W 122°21'3 6.9
2018-Jul-16 12:00N 37°51' W 122°22'3 6.0
2018-Jul-16 11:30N 37°50' W 122°19'  
2018-Jul-14 02:20N 37°50' W 122°19'3 8.3
2018-Jul-14 02:01N 37°51' W 122°22'1121.9
2018-Jul-14 01:31N 38°02' W 122°21'914.3
2018-Jul-14 00:52N 38°03' W 122°09'924.6
2018-Jul-14 00:30N 38°02' W 122°21'917.8
2018-Jul-14 00:00N 37°55' W 122°27'612.2
2018-Jul-13 23:30N 37°51' W 122°21'1222.8
2018-Jul-13 23:00N 37°40' W 122°23'713.6
2018-Jul-13 22:30N 37°46' W 122°22'5 9.2
2018-Jul-13 22:01N 37°51' W 122°21'1122.6
2018-Jul-13 21:30N 37°40' W 122°23'1121.2
2018-Jul-13 21:01N 37°50' W 122°20'1 1.7
2018-Jul-13 20:30N 37°50' W 122°19'0 0.0
2018-Jul-13 16:12N 37°50' W 122°19'1 4.4
2018-Jul-13 16:01N 37°50' W 122°20'1121.5
2018-Jul-13 15:30N 37°40' W 122°23'918.8
2018-Jul-13 15:01N 37°49' W 122°21'7 6.9
2018-Jul-13 14:01N 37°42' W 122°20'1 2.6
2018-Jul-13 13:30N 37°43' W 122°21'918.6
2018-Jul-13 13:00N 37°52' W 122°19'3 6.8
2018-Jul-13 12:30N 37°55' W 122°21'2 4.6
2018-Jul-13 12:01N 37°54' W 122°24'510.6
2018-Jul-13 11:30N 37°50' W 122°19'0 0.0
2018-Jul-13 02:28N 37°50' W 122°19'4 8.4
2018-Jul-13 02:00N 37°52' W 122°23'1019.3
2018-Jul-13 01:31N 38°02' W 122°22'1016.9
2018-Jul-13 00:57N 38°03' W 122°09'1126.0
2018-Jul-13 00:30N 38°00' W 122°24'612.2
2018-Jul-13 00:00N 37°54' W 122°26'510.2
2018-Jul-12 23:30N 37°51' W 122°21'1122.6
2018-Jul-12 23:01N 37°40' W 122°23'713.0
2018-Jul-12 22:31N 37°46' W 122°21'510.3
2018-Jul-12 22:00N 37°51' W 122°21'1223.3
2018-Jul-12 21:30N 37°40' W 122°23'815.1
2018-Jul-12 21:01N 37°47' W 122°21'4 7.1
2018-Jul-12 20:30N 37°50' W 122°19'0 0.0
2018-Jul-12 16:10N 37°50' W 122°19'318.0
2018-Jul-12 16:00N 37°48' W 122°21'917.1
2018-Jul-12 15:30N 37°40' W 122°23'917.8
2018-Jul-12 15:01N 37°49' W 122°21'4 7.7
2018-Jul-12 14:31N 37°52' W 122°19'918.8
2018-Jul-12 14:00N 37°43' W 122°21'1 1.9
2018-Jul-12 13:31N 37°42' W 122°21'1020.5
2018-Jul-12 13:00N 37°52' W 122°19'3 6.7
2018-Jul-12 12:30N 37°55' W 122°21'2 4.8
2018-Jul-12 12:00N 37°53' W 122°24'5 9.0
2018-Jul-12 11:29N 37°50' W 122°19'0 0.0
2018-Jul-12 02:53N 37°50' W 122°19'0 0.0
2018-Jul-12 02:30N 37°50' W 122°19'3 5.1
2018-Jul-12 02:01N 37°51' W 122°22'1020.0
2018-Jul-12 01:30N 38°01' W 122°23'1019.4
2018-Jul-12 01:00N 38°03' W 122°11'713.4
2018-Jul-12 00:30N 38°02' W 122°19'1020.4
2018-Jul-12 00:01N 37°55' W 122°28'713.6
2018-Jul-11 23:30N 37°51' W 122°21'1222.9
2018-Jul-11 23:00N 37°40' W 122°23'5 9.9
2018-Jul-11 22:31N 37°44' W 122°21'714.4
2018-Jul-11 22:01N 37°52' W 122°20'1219.4
2018-Jul-11 21:23N 37°40' W 122°23'616.8
2018-Jul-11 21:01N 37°46' W 122°22'5 9.5
2018-Jul-11 20:31N 37°50' W 122°19'0 0.0
2018-Jul-11 20:00N 37°50' W 122°19'0 0.0
2018-Jul-11 16:22N 37°50' W 122°19'2 5.7
2018-Jul-11 16:00N 37°49' W 122°21'1019.2
2018-Jul-11 15:30N 37°40' W 122°23'918.8
2018-Jul-11 15:00N 37°49' W 122°21'3 6.7
2018-Jul-11 14:30N 37°52' W 122°19'613.0
2018-Jul-11 14:00N 37°46' W 122°22'4 7.9
2018-Jul-11 13:30N 37°42' W 122°21'1020.3
2018-Jul-11 13:00N 37°52' W 122°19'3 6.8
2018-Jul-11 12:30N 37°55' W 122°21'3 5.9
2018-Jul-11 12:01N 37°52' W 122°23'4 7.5
2018-Jul-11 11:30N 37°50' W 122°19'0 0.0
2018-Jul-11 02:36N 37°50' W 122°19'0 0.0
2018-Jul-11 02:31N 37°50' W 122°19'611.8
2018-Jul-11 02:01N 37°54' W 122°25'713.1
2018-Jul-11 01:30N 38°00' W 122°24'1220.1
2018-Jul-11 00:55N 38°02' W 122°10'1226.6
2018-Jul-11 00:29N 37°60' W 122°24'715.2
2018-Jul-11 00:00N 37°53' W 122°23'2 4.3
2018-Jul-10 23:31N 37°51' W 122°22'1120.3
2018-Jul-10 22:58N 37°40' W 122°23'715.3
2018-Jul-10 22:31N 37°47' W 122°22'5 9.3
2018-Jul-10 22:01N 37°51' W 122°21'1222.2
2018-Jul-10 21:29N 37°40' W 122°23'714.1
2018-Jul-10 21:01N 37°47' W 122°22'4 8.9
2018-Jul-10 20:30N 37°50' W 122°19'0 0.0
2018-Jul-10 20:00N 37°50' W 122°19'0 0.0
2018-Jul-10 19:30N 37°50' W 122°19'0 0.0
2018-Jul-10 16:11N 37°50' W 122°19'1 4.6
2018-Jul-10 16:00N 37°51' W 122°20'1121.2
2018-Jul-10 15:30N 37°40' W 122°23'816.3
2018-Jul-10 15:00N 37°48' W 122°21'5 9.2
2018-Jul-10 14:30N 37°52' W 122°19'815.6
2018-Jul-10 14:00N 37°44' W 122°21'3 5.4
2018-Jul-10 13:30N 37°42' W 122°21'1020.8
2018-Jul-10 13:00N 37°52' W 122°19'3 6.4
2018-Jul-10 12:29N 37°55' W 122°21'0 1.0
2018-Jul-10 12:00N 37°54' W 122°22'5 9.1
2018-Jul-10 11:30N 37°51' W 122°19'0 0.0
2018-Jul-10 02:23N 37°50' W 122°19'1 2.4
2018-Jul-10 02:00N 37°51' W 122°20'1019.4
2018-Jul-10 01:30N 37°59' W 122°25'1122.5
2018-Jul-10 01:00N 38°03' W 122°11'713.7
2018-Jul-10 00:30N 38°02' W 122°20'918.9
2018-Jul-10 00:00N 37°55' W 122°27'611.6
2018-Jul-09 23:31N 37°51' W 122°21'1122.3
2018-Jul-09 23:00N 37°40' W 122°23'510.8
2018-Jul-09 22:31N 37°45' W 122°21'713.2
2018-Jul-09 22:00N 37°52' W 122°20'1222.3
2018-Jul-09 21:28N 37°40' W 122°23'510.3
2018-Jul-09 21:01N 37°44' W 122°21'612.3
2018-Jul-09 20:30N 37°50' W 122°19'0 0.0
2018-Jul-09 16:10N 37°50' W 122°19'0 1.0
2018-Jul-09 16:00N 37°50' W 122°19'1121.4
2018-Jul-09 15:29N 37°40' W 122°23'918.5
2018-Jul-09 15:00N 37°49' W 122°21'4 7.5
2018-Jul-09 14:30N 37°52' W 122°19'612.8
2018-Jul-09 14:01N 37°46' W 122°21'4 7.9
2018-Jul-09 13:30N 37°42' W 122°21'1020.5
2018-Jul-09 13:00N 37°52' W 122°19'3 6.6
2018-Jul-09 12:30N 37°55' W 122°21'0 0.5
2018-Jul-09 12:00N 37°55' W 122°22'5 9.5
2018-Jul-09 11:31N 37°50' W 122°19'  
2018-Jul-07 02:14N 37°50' W 122°19'313.2
2018-Jul-07 02:01N 37°52' W 122°22'1122.2
2018-Jul-07 01:30N 38°02' W 122°20'811.9
2018-Jul-07 00:49N 38°03' W 122°09'723.1
2018-Jul-07 00:31N 38°03' W 122°19'1121.4
2018-Jul-07 00:01N 37°55' W 122°28'713.7
2018-Jul-06 23:30N 37°51' W 122°21'1122.8
2018-Jul-06 23:00N 37°40' W 122°23'611.8
2018-Jul-06 22:31N 37°46' W 122°21'611.2
2018-Jul-06 22:00N 37°51' W 122°21'1116.4
2018-Jul-06 21:19N 37°40' W 122°23'414.0
2018-Jul-06 21:00N 37°44' W 122°21'713.5
2018-Jul-06 20:30N 37°50' W 122°19'0 0.0
2018-Jul-06 20:00N 37°50' W 122°19'0 0.1
2018-Jul-06 16:02N 37°51' W 122°19'0 3.2
2018-Jul-06 16:01N 37°51' W 122°19'1121.2
2018-Jul-06 15:29N 37°40' W 122°23'919.1
2018-Jul-06 15:01N 37°49' W 122°21'  

Dump ship's entire track history